sensor_id;sensor_type;location;lat;lon;timestamp;P1;durP1;ratioP1;P2;durP2;ratioP2
14748;SDS011;7466;53.574;9.976;2023-05-07T00:01:45;12.97;;;11.87;;
14748;SDS011;7466;53.574;9.976;2023-05-07T00:04:13;13.90;;;12.60;;
14748;SDS011;7466;53.574;9.976;2023-05-07T00:06:40;14.30;;;12.87;;
14748;SDS011;7466;53.574;9.976;2023-05-07T00:09:07;15.07;;;13.57;;
14748;SDS011;7466;53.574;9.976;2023-05-07T00:11:34;14.70;;;13.30;;
14748;SDS011;7466;53.574;9.976;2023-05-07T00:14:01;15.17;;;13.40;;
14748;SDS011;7466;53.574;9.976;2023-05-07T00:16:27;14.80;;;13.43;;
14748;SDS011;7466;53.574;9.976;2023-05-07T00:18:54;16.23;;;13.47;;
14748;SDS011;7466;53.574;9.976;2023-05-07T00:21:22;14.27;;;12.97;;
14748;SDS011;7466;53.574;9.976;2023-05-07T00:23:51;15.67;;;14.07;;
14748;SDS011;7466;53.574;9.976;2023-05-07T00:26:18;14.90;;;13.50;;
14748;SDS011;7466;53.574;9.976;2023-05-07T00:28:45;15.77;;;14.27;;
14748;SDS011;7466;53.574;9.976;2023-05-07T00:31:12;16.07;;;13.87;;
14748;SDS011;7466;53.574;9.976;2023-05-07T00:33:41;15.70;;;14.20;;
14748;SDS011;7466;53.574;9.976;2023-05-07T00:36:07;16.00;;;14.27;;
14748;SDS011;7466;53.574;9.976;2023-05-07T00:38:38;15.90;;;14.30;;
14748;SDS011;7466;53.574;9.976;2023-05-07T00:41:04;14.83;;;13.43;;
14748;SDS011;7466;53.574;9.976;2023-05-07T00:43:31;15.83;;;14.27;;
14748;SDS011;7466;53.574;9.976;2023-05-07T00:45:58;15.53;;;13.87;;
14748;SDS011;7466;53.574;9.976;2023-05-07T00:48:25;17.20;;;14.67;;
14748;SDS011;7466;53.574;9.976;2023-05-07T00:50:52;14.37;;;12.93;;
14748;SDS011;7466;53.574;9.976;2023-05-07T00:53:24;15.13;;;13.03;;
14748;SDS011;7466;53.574;9.976;2023-05-07T00:55:52;14.70;;;13.17;;
14748;SDS011;7466;53.574;9.976;2023-05-07T00:58:19;13.93;;;12.47;;
14748;SDS011;7466;53.574;9.976;2023-05-07T01:00:47;14.60;;;13.10;;
14748;SDS011;7466;53.574;9.976;2023-05-07T01:03:13;14.07;;;12.77;;
14748;SDS011;7466;53.574;9.976;2023-05-07T01:05:40;13.40;;;12.13;;
14748;SDS011;7466;53.574;9.976;2023-05-07T01:08:08;14.17;;;12.93;;
14748;SDS011;7466;53.574;9.976;2023-05-07T01:10:36;13.37;;;12.10;;
14748;SDS011;7466;53.574;9.976;2023-05-07T01:13:04;14.00;;;12.67;;
14748;SDS011;7466;53.574;9.976;2023-05-07T01:15:31;14.40;;;13.00;;
14748;SDS011;7466;53.574;9.976;2023-05-07T01:17:58;14.97;;;13.57;;
14748;SDS011;7466;53.574;9.976;2023-05-07T01:20:25;14.40;;;13.03;;
14748;SDS011;7466;53.574;9.976;2023-05-07T01:22:53;13.80;;;12.50;;
14748;SDS011;7466;53.574;9.976;2023-05-07T01:25:21;12.87;;;11.70;;
14748;SDS011;7466;53.574;9.976;2023-05-07T01:27:48;12.53;;;11.40;;
14748;SDS011;7466;53.574;9.976;2023-05-07T01:30:14;12.80;;;11.70;;
14748;SDS011;7466;53.574;9.976;2023-05-07T01:32:43;12.17;;;11.17;;
14748;SDS011;7466;53.574;9.976;2023-05-07T01:35:15;11.87;;;10.83;;
14748;SDS011;7466;53.574;9.976;2023-05-07T01:37:45;11.07;;;10.17;;
14748;SDS011;7466;53.574;9.976;2023-05-07T01:40:17;11.87;;;10.87;;
14748;SDS011;7466;53.574;9.976;2023-05-07T01:42:45;10.77;;;9.97;;
14748;SDS011;7466;53.574;9.976;2023-05-07T01:45:13;13.30;;;11.37;;
14748;SDS011;7466;53.574;9.976;2023-05-07T01:47:40;12.17;;;11.17;;
14748;SDS011;7466;53.574;9.976;2023-05-07T01:50:07;11.83;;;10.93;;
14748;SDS011;7466;53.574;9.976;2023-05-07T01:52:35;11.53;;;10.63;;
14748;SDS011;7466;53.574;9.976;2023-05-07T01:55:03;11.63;;;10.50;;
14748;SDS011;7466;53.574;9.976;2023-05-07T01:57:32;11.53;;;10.63;;
14748;SDS011;7466;53.574;9.976;2023-05-07T01:59:59;10.90;;;10.10;;
14748;SDS011;7466;53.574;9.976;2023-05-07T02:02:26;10.93;;;10.13;;
14748;SDS011;7466;53.574;9.976;2023-05-07T02:04:52;11.60;;;10.70;;
14748;SDS011;7466;53.574;9.976;2023-05-07T02:07:19;11.37;;;10.37;;
14748;SDS011;7466;53.574;9.976;2023-05-07T02:09:46;10.50;;;9.60;;
14748;SDS011;7466;53.574;9.976;2023-05-07T02:12:12;10.83;;;9.93;;
14748;SDS011;7466;53.574;9.976;2023-05-07T02:14:41;10.83;;;9.93;;
14748;SDS011;7466;53.574;9.976;2023-05-07T02:17:08;11.23;;;10.43;;
14748;SDS011;7466;53.574;9.976;2023-05-07T02:19:35;12.03;;;11.03;;
14748;SDS011;7466;53.574;9.976;2023-05-07T02:22:01;12.40;;;11.30;;
14748;SDS011;7466;53.574;9.976;2023-05-07T02:24:28;10.87;;;9.97;;
14748;SDS011;7466;53.574;9.976;2023-05-07T02:26:55;11.70;;;10.70;;
14748;SDS011;7466;53.574;9.976;2023-05-07T02:29:22;11.00;;;10.10;;
14748;SDS011;7466;53.574;9.976;2023-05-07T02:31:50;12.20;;;11.10;;
14748;SDS011;7466;53.574;9.976;2023-05-07T02:34:18;11.03;;;10.17;;
14748;SDS011;7466;53.574;9.976;2023-05-07T02:36:45;10.33;;;9.47;;
14748;SDS011;7466;53.574;9.976;2023-05-07T02:39:12;10.47;;;9.57;;
14748;SDS011;7466;53.574;9.976;2023-05-07T02:41:39;10.67;;;9.77;;
14748;SDS011;7466;53.574;9.976;2023-05-07T02:44:05;10.50;;;9.53;;
14748;SDS011;7466;53.574;9.976;2023-05-07T02:46:32;11.10;;;10.00;;
14748;SDS011;7466;53.574;9.976;2023-05-07T02:49:00;12.10;;;9.90;;
14748;SDS011;7466;53.574;9.976;2023-05-07T02:51:27;10.23;;;9.40;;
14748;SDS011;7466;53.574;9.976;2023-05-07T02:53:56;11.63;;;10.53;;
14748;SDS011;7466;53.574;9.976;2023-05-07T02:56:22;10.77;;;9.80;;
14748;SDS011;7466;53.574;9.976;2023-05-07T02:58:51;10.17;;;9.37;;
14748;SDS011;7466;53.574;9.976;2023-05-07T03:01:18;10.47;;;9.57;;
14748;SDS011;7466;53.574;9.976;2023-05-07T03:03:45;10.33;;;9.57;;
14748;SDS011;7466;53.574;9.976;2023-05-07T03:06:13;10.30;;;9.40;;
14748;SDS011;7466;53.574;9.976;2023-05-07T03:08:40;10.60;;;9.50;;
14748;SDS011;7466;53.574;9.976;2023-05-07T03:11:07;10.17;;;9.23;;
14748;SDS011;7466;53.574;9.976;2023-05-07T03:13:34;11.03;;;10.03;;
14748;SDS011;7466;53.574;9.976;2023-05-07T03:16:00;11.70;;;10.43;;
14748;SDS011;7466;53.574;9.976;2023-05-07T03:18:27;12.40;;;11.30;;
14748;SDS011;7466;53.574;9.976;2023-05-07T03:20:54;12.80;;;11.70;;
14748;SDS011;7466;53.574;9.976;2023-05-07T03:23:22;13.90;;;12.60;;
14748;SDS011;7466;53.574;9.976;2023-05-07T03:25:48;11.80;;;10.70;;
14748;SDS011;7466;53.574;9.976;2023-05-07T03:28:15;12.93;;;11.70;;
14748;SDS011;7466;53.574;9.976;2023-05-07T03:30:42;15.00;;;12.53;;
14748;SDS011;7466;53.574;9.976;2023-05-07T03:33:08;13.37;;;12.17;;
14748;SDS011;7466;53.574;9.976;2023-05-07T03:35:35;13.10;;;11.80;;
14748;SDS011;7466;53.574;9.976;2023-05-07T03:38:02;13.93;;;12.53;;
14748;SDS011;7466;53.574;9.976;2023-05-07T03:40:30;12.63;;;11.53;;
14748;SDS011;7466;53.574;9.976;2023-05-07T03:42:56;12.60;;;11.30;;
14748;SDS011;7466;53.574;9.976;2023-05-07T03:45:23;13.07;;;11.87;;
14748;SDS011;7466;53.574;9.976;2023-05-07T03:47:50;12.73;;;11.53;;
14748;SDS011;7466;53.574;9.976;2023-05-07T03:50:17;12.30;;;11.20;;
14748;SDS011;7466;53.574;9.976;2023-05-07T03:52:45;12.10;;;11.17;;
14748;SDS011;7466;53.574;9.976;2023-05-07T03:55:12;11.43;;;10.40;;
14748;SDS011;7466;53.574;9.976;2023-05-07T03:57:40;12.93;;;11.63;;
14748;SDS011;7466;53.574;9.976;2023-05-07T04:00:07;12.93;;;11.60;;
14748;SDS011;7466;53.574;9.976;2023-05-07T04:02:34;12.13;;;11.03;;
14748;SDS011;7466;53.574;9.976;2023-05-07T04:05:02;12.03;;;10.93;;
14748;SDS011;7466;53.574;9.976;2023-05-07T04:07:30;11.37;;;10.33;;
14748;SDS011;7466;53.574;9.976;2023-05-07T04:09:56;11.53;;;10.53;;
14748;SDS011;7466;53.574;9.976;2023-05-07T04:12:23;11.87;;;10.87;;
14748;SDS011;7466;53.574;9.976;2023-05-07T04:14:51;12.00;;;11.00;;
14748;SDS011;7466;53.574;9.976;2023-05-07T04:17:18;11.37;;;10.37;;
14748;SDS011;7466;53.574;9.976;2023-05-07T04:19:44;12.30;;;11.10;;
14748;SDS011;7466;53.574;9.976;2023-05-07T04:22:11;11.90;;;10.83;;
14748;SDS011;7466;53.574;9.976;2023-05-07T04:24:40;11.67;;;10.53;;
14748;SDS011;7466;53.574;9.976;2023-05-07T04:27:07;11.70;;;10.70;;
14748;SDS011;7466;53.574;9.976;2023-05-07T04:29:34;12.10;;;10.90;;
14748;SDS011;7466;53.574;9.976;2023-05-07T04:32:02;11.40;;;10.50;;
14748;SDS011;7466;53.574;9.976;2023-05-07T04:34:29;11.33;;;10.33;;
14748;SDS011;7466;53.574;9.976;2023-05-07T04:36:57;12.00;;;10.90;;
14748;SDS011;7466;53.574;9.976;2023-05-07T04:39:24;11.73;;;10.63;;
14748;SDS011;7466;53.574;9.976;2023-05-07T04:41:51;11.00;;;10.03;;
14748;SDS011;7466;53.574;9.976;2023-05-07T04:44:18;10.97;;;9.93;;
14748;SDS011;7466;53.574;9.976;2023-05-07T04:46:46;11.40;;;10.30;;
14748;SDS011;7466;53.574;9.976;2023-05-07T04:49:14;11.50;;;10.50;;
14748;SDS011;7466;53.574;9.976;2023-05-07T04:51:41;10.67;;;9.67;;
14748;SDS011;7466;53.574;9.976;2023-05-07T04:54:08;10.73;;;9.80;;
14748;SDS011;7466;53.574;9.976;2023-05-07T04:56:37;10.53;;;9.60;;
14748;SDS011;7466;53.574;9.976;2023-05-07T04:59:04;10.40;;;9.57;;
14748;SDS011;7466;53.574;9.976;2023-05-07T05:01:31;10.70;;;9.23;;
14748;SDS011;7466;53.574;9.976;2023-05-07T05:03:58;9.70;;;8.90;;
14748;SDS011;7466;53.574;9.976;2023-05-07T05:06:27;10.20;;;9.40;;
14748;SDS011;7466;53.574;9.976;2023-05-07T05:08:54;9.50;;;8.80;;
14748;SDS011;7466;53.574;9.976;2023-05-07T05:11:21;9.60;;;8.80;;
14748;SDS011;7466;53.574;9.976;2023-05-07T05:13:48;10.60;;;9.60;;
14748;SDS011;7466;53.574;9.976;2023-05-07T05:16:15;9.70;;;8.87;;
14748;SDS011;7466;53.574;9.976;2023-05-07T05:18:42;9.37;;;8.57;;
14748;SDS011;7466;53.574;9.976;2023-05-07T05:21:08;9.77;;;8.97;;
14748;SDS011;7466;53.574;9.976;2023-05-07T05:23:36;9.67;;;8.87;;
14748;SDS011;7466;53.574;9.976;2023-05-07T05:26:03;9.47;;;8.77;;
14748;SDS011;7466;53.574;9.976;2023-05-07T05:28:30;10.53;;;9.53;;
14748;SDS011;7466;53.574;9.976;2023-05-07T05:30:57;10.00;;;9.13;;
14748;SDS011;7466;53.574;9.976;2023-05-07T05:33:24;11.10;;;9.90;;
14748;SDS011;7466;53.574;9.976;2023-05-07T05:35:50;10.50;;;9.60;;
14748;SDS011;7466;53.574;9.976;2023-05-07T05:38:17;9.80;;;9.00;;
14748;SDS011;7466;53.574;9.976;2023-05-07T05:40:47;10.93;;;9.93;;
14748;SDS011;7466;53.574;9.976;2023-05-07T05:43:14;10.20;;;9.00;;
14748;SDS011;7466;53.574;9.976;2023-05-07T05:45:40;10.73;;;9.63;;
14748;SDS011;7466;53.574;9.976;2023-05-07T05:48:07;10.20;;;9.40;;
14748;SDS011;7466;53.574;9.976;2023-05-07T05:50:34;10.30;;;9.30;;
14748;SDS011;7466;53.574;9.976;2023-05-07T05:53:01;10.67;;;9.67;;
14748;SDS011;7466;53.574;9.976;2023-05-07T05:55:28;10.57;;;9.77;;
14748;SDS011;7466;53.574;9.976;2023-05-07T05:57:58;10.80;;;9.80;;
14748;SDS011;7466;53.574;9.976;2023-05-07T06:00:25;10.23;;;9.30;;
14748;SDS011;7466;53.574;9.976;2023-05-07T06:02:54;10.97;;;9.93;;
14748;SDS011;7466;53.574;9.976;2023-05-07T06:05:21;10.47;;;9.47;;
14748;SDS011;7466;53.574;9.976;2023-05-07T06:07:49;10.77;;;9.87;;
14748;SDS011;7466;53.574;9.976;2023-05-07T06:10:16;9.90;;;9.10;;
14748;SDS011;7466;53.574;9.976;2023-05-07T06:12:43;10.53;;;9.43;;
14748;SDS011;7466;53.574;9.976;2023-05-07T06:15:11;10.27;;;9.47;;
14748;SDS011;7466;53.574;9.976;2023-05-07T06:17:38;11.03;;;10.03;;
14748;SDS011;7466;53.574;9.976;2023-05-07T06:20:05;10.93;;;10.03;;
14748;SDS011;7466;53.574;9.976;2023-05-07T06:22:35;9.70;;;8.80;;
14748;SDS011;7466;53.574;9.976;2023-05-07T06:25:03;10.20;;;9.30;;
14748;SDS011;7466;53.574;9.976;2023-05-07T06:27:30;10.03;;;9.23;;
14748;SDS011;7466;53.574;9.976;2023-05-07T06:29:57;10.17;;;9.27;;
14748;SDS011;7466;53.574;9.976;2023-05-07T06:32:25;10.60;;;9.50;;
14748;SDS011;7466;53.574;9.976;2023-05-07T06:34:57;9.90;;;9.00;;
14748;SDS011;7466;53.574;9.976;2023-05-07T06:37:24;10.10;;;9.10;;
14748;SDS011;7466;53.574;9.976;2023-05-07T06:39:51;9.50;;;8.70;;
14748;SDS011;7466;53.574;9.976;2023-05-07T06:42:18;10.50;;;9.63;;
14748;SDS011;7466;53.574;9.976;2023-05-07T06:44:45;10.20;;;9.27;;
14748;SDS011;7466;53.574;9.976;2023-05-07T06:47:11;9.80;;;8.90;;
14748;SDS011;7466;53.574;9.976;2023-05-07T06:49:39;10.30;;;9.50;;
14748;SDS011;7466;53.574;9.976;2023-05-07T06:52:06;9.50;;;8.80;;
14748;SDS011;7466;53.574;9.976;2023-05-07T06:54:33;9.57;;;8.87;;
14748;SDS011;7466;53.574;9.976;2023-05-07T06:56:59;10.03;;;9.03;;
14748;SDS011;7466;53.574;9.976;2023-05-07T06:59:26;9.60;;;8.83;;
14748;SDS011;7466;53.574;9.976;2023-05-07T07:01:53;10.20;;;9.03;;
14748;SDS011;7466;53.574;9.976;2023-05-07T07:04:20;9.30;;;8.60;;
14748;SDS011;7466;53.574;9.976;2023-05-07T07:06:49;10.13;;;9.17;;
14748;SDS011;7466;53.574;9.976;2023-05-07T07:09:17;9.00;;;8.37;;
14748;SDS011;7466;53.574;9.976;2023-05-07T07:11:44;8.67;;;7.87;;
14748;SDS011;7466;53.574;9.976;2023-05-07T07:14:11;8.20;;;7.60;;
14748;SDS011;7466;53.574;9.976;2023-05-07T07:16:39;8.63;;;7.93;;
14748;SDS011;7466;53.574;9.976;2023-05-07T07:19:08;7.93;;;7.33;;
14748;SDS011;7466;53.574;9.976;2023-05-07T07:21:35;8.73;;;7.97;;
14748;SDS011;7466;53.574;9.976;2023-05-07T07:24:04;9.03;;;8.33;;
14748;SDS011;7466;53.574;9.976;2023-05-07T07:26:31;8.27;;;7.67;;
14748;SDS011;7466;53.574;9.976;2023-05-07T07:28:57;8.93;;;8.13;;
14748;SDS011;7466;53.574;9.976;2023-05-07T07:31:25;8.07;;;7.47;;
14748;SDS011;7466;53.574;9.976;2023-05-07T07:33:52;8.33;;;7.70;;
14748;SDS011;7466;53.574;9.976;2023-05-07T07:36:19;7.97;;;7.27;;
14748;SDS011;7466;53.574;9.976;2023-05-07T07:38:48;8.03;;;7.43;;
14748;SDS011;7466;53.574;9.976;2023-05-07T07:41:19;7.73;;;7.13;;
14748;SDS011;7466;53.574;9.976;2023-05-07T07:43:46;7.87;;;7.17;;
14748;SDS011;7466;53.574;9.976;2023-05-07T07:46:12;7.60;;;6.93;;
14748;SDS011;7466;53.574;9.976;2023-05-07T07:48:39;7.57;;;6.97;;
14748;SDS011;7466;53.574;9.976;2023-05-07T07:51:06;8.20;;;7.23;;
14748;SDS011;7466;53.574;9.976;2023-05-07T07:53:33;7.50;;;7.03;;
14748;SDS011;7466;53.574;9.976;2023-05-07T07:55:59;7.23;;;6.60;;
14748;SDS011;7466;53.574;9.976;2023-05-07T07:58:27;7.10;;;6.60;;
14748;SDS011;7466;53.574;9.976;2023-05-07T08:00:54;7.13;;;6.63;;
14748;SDS011;7466;53.574;9.976;2023-05-07T08:03:21;7.77;;;7.00;;
14748;SDS011;7466;53.574;9.976;2023-05-07T08:05:48;8.00;;;7.30;;
14748;SDS011;7466;53.574;9.976;2023-05-07T08:08:16;6.87;;;6.27;;
14748;SDS011;7466;53.574;9.976;2023-05-07T08:10:42;6.80;;;6.20;;
14748;SDS011;7466;53.574;9.976;2023-05-07T08:13:09;7.43;;;6.73;;
14748;SDS011;7466;53.574;9.976;2023-05-07T08:15:37;7.40;;;6.60;;
14748;SDS011;7466;53.574;9.976;2023-05-07T08:18:04;6.93;;;6.27;;
14748;SDS011;7466;53.574;9.976;2023-05-07T08:20:31;7.80;;;6.63;;
14748;SDS011;7466;53.574;9.976;2023-05-07T08:22:58;6.93;;;6.43;;
14748;SDS011;7466;53.574;9.976;2023-05-07T08:25:25;6.87;;;6.37;;
14748;SDS011;7466;53.574;9.976;2023-05-07T08:27:51;7.20;;;6.67;;
14748;SDS011;7466;53.574;9.976;2023-05-07T08:30:18;7.20;;;6.50;;
14748;SDS011;7466;53.574;9.976;2023-05-07T08:32:46;7.33;;;6.60;;
14748;SDS011;7466;53.574;9.976;2023-05-07T08:35:13;6.80;;;6.20;;
14748;SDS011;7466;53.574;9.976;2023-05-07T08:37:43;6.87;;;6.30;;
14748;SDS011;7466;53.574;9.976;2023-05-07T08:40:10;7.03;;;6.43;;
14748;SDS011;7466;53.574;9.976;2023-05-07T08:42:37;7.50;;;6.67;;
14748;SDS011;7466;53.574;9.976;2023-05-07T08:45:07;7.10;;;6.40;;
14748;SDS011;7466;53.574;9.976;2023-05-07T08:47:39;6.63;;;6.13;;
14748;SDS011;7466;53.574;9.976;2023-05-07T08:50:11;7.20;;;6.60;;
14748;SDS011;7466;53.574;9.976;2023-05-07T08:52:38;7.60;;;6.93;;
14748;SDS011;7466;53.574;9.976;2023-05-07T08:55:08;7.20;;;6.70;;
14748;SDS011;7466;53.574;9.976;2023-05-07T08:57:38;6.93;;;6.53;;
14748;SDS011;7466;53.574;9.976;2023-05-07T09:00:06;7.53;;;7.03;;
14748;SDS011;7466;53.574;9.976;2023-05-07T09:02:34;8.57;;;7.70;;
14748;SDS011;7466;53.574;9.976;2023-05-07T09:05:04;8.27;;;6.87;;
14748;SDS011;7466;53.574;9.976;2023-05-07T09:07:32;7.67;;;7.13;;
14748;SDS011;7466;53.574;9.976;2023-05-07T09:10:01;7.53;;;6.97;;
14748;SDS011;7466;53.574;9.976;2023-05-07T09:12:29;7.67;;;7.07;;
14748;SDS011;7466;53.574;9.976;2023-05-07T09:14:55;6.83;;;6.23;;
14748;SDS011;7466;53.574;9.976;2023-05-07T09:17:22;7.37;;;6.80;;
14748;SDS011;7466;53.574;9.976;2023-05-07T09:19:49;7.23;;;6.63;;
14748;SDS011;7466;53.574;9.976;2023-05-07T09:22:18;7.23;;;6.73;;
14748;SDS011;7466;53.574;9.976;2023-05-07T09:24:48;7.07;;;6.50;;
14748;SDS011;7466;53.574;9.976;2023-05-07T09:27:15;6.47;;;6.07;;
14748;SDS011;7466;53.574;9.976;2023-05-07T09:29:43;7.23;;;6.63;;
14748;SDS011;7466;53.574;9.976;2023-05-07T09:32:10;6.87;;;6.37;;
14748;SDS011;7466;53.574;9.976;2023-05-07T09:34:37;6.40;;;6.00;;
14748;SDS011;7466;53.574;9.976;2023-05-07T09:37:04;6.40;;;5.93;;
14748;SDS011;7466;53.574;9.976;2023-05-07T09:39:38;6.20;;;5.77;;
14748;SDS011;7466;53.574;9.976;2023-05-07T09:42:07;6.23;;;5.73;;
14748;SDS011;7466;53.574;9.976;2023-05-07T09:44:36;6.57;;;5.97;;
14748;SDS011;7466;53.574;9.976;2023-05-07T09:47:04;6.20;;;5.80;;
14748;SDS011;7466;53.574;9.976;2023-05-07T09:49:33;6.77;;;6.03;;
14748;SDS011;7466;53.574;9.976;2023-05-07T09:52:01;6.83;;;6.33;;
14748;SDS011;7466;53.574;9.976;2023-05-07T09:54:31;6.43;;;5.63;;
14748;SDS011;7466;53.574;9.976;2023-05-07T09:56:58;7.03;;;6.43;;
14748;SDS011;7466;53.574;9.976;2023-05-07T09:59:28;6.63;;;6.17;;
14748;SDS011;7466;53.574;9.976;2023-05-07T10:01:57;5.80;;;5.40;;
14748;SDS011;7466;53.574;9.976;2023-05-07T10:04:25;6.10;;;5.50;;
14748;SDS011;7466;53.574;9.976;2023-05-07T10:06:52;6.13;;;5.73;;
14748;SDS011;7466;53.574;9.976;2023-05-07T10:09:20;6.30;;;5.70;;
14748;SDS011;7466;53.574;9.976;2023-05-07T10:11:47;8.20;;;5.57;;
14748;SDS011;7466;53.574;9.976;2023-05-07T10:14:19;5.67;;;5.17;;
14748;SDS011;7466;53.574;9.976;2023-05-07T10:16:48;6.27;;;5.77;;
14748;SDS011;7466;53.574;9.976;2023-05-07T10:19:15;5.97;;;5.50;;
14748;SDS011;7466;53.574;9.976;2023-05-07T10:21:44;6.30;;;5.90;;
14748;SDS011;7466;53.574;9.976;2023-05-07T10:24:16;6.70;;;6.20;;
14748;SDS011;7466;53.574;9.976;2023-05-07T10:26:48;6.77;;;6.17;;
14748;SDS011;7466;53.574;9.976;2023-05-07T10:29:18;5.80;;;5.40;;
14748;SDS011;7466;53.574;9.976;2023-05-07T10:32:07;5.90;;;5.50;;
14748;SDS011;7466;53.574;9.976;2023-05-07T10:34:45;5.63;;;5.23;;
14748;SDS011;7466;53.574;9.976;2023-05-07T10:37:15;5.90;;;5.40;;
14748;SDS011;7466;53.574;9.976;2023-05-07T10:39:43;6.00;;;5.50;;
14748;SDS011;7466;53.574;9.976;2023-05-07T10:42:11;5.70;;;5.30;;
14748;SDS011;7466;53.574;9.976;2023-05-07T10:44:38;6.30;;;5.83;;
14748;SDS011;7466;53.574;9.976;2023-05-07T10:47:07;6.00;;;5.50;;
14748;SDS011;7466;53.574;9.976;2023-05-07T10:49:36;6.20;;;5.80;;
14748;SDS011;7466;53.574;9.976;2023-05-07T10:52:13;5.80;;;5.20;;
14748;SDS011;7466;53.574;9.976;2023-05-07T10:54:41;6.70;;;6.20;;
14748;SDS011;7466;53.574;9.976;2023-05-07T10:57:33;5.40;;;5.00;;
14748;SDS011;7466;53.574;9.976;2023-05-07T11:00:04;5.50;;;5.10;;
14748;SDS011;7466;53.574;9.976;2023-05-07T11:03:10;5.97;;;5.47;;
14748;SDS011;7466;53.574;9.976;2023-05-07T11:05:37;5.47;;;5.07;;
14748;SDS011;7466;53.574;9.976;2023-05-07T11:08:04;5.43;;;5.03;;
14748;SDS011;7466;53.574;9.976;2023-05-07T11:10:47;5.43;;;5.03;;
14748;SDS011;7466;53.574;9.976;2023-05-07T11:13:15;5.43;;;5.03;;
14748;SDS011;7466;53.574;9.976;2023-05-07T11:15:45;5.43;;;5.13;;
14748;SDS011;7466;53.574;9.976;2023-05-07T11:18:14;5.40;;;5.10;;
14748;SDS011;7466;53.574;9.976;2023-05-07T11:20:55;5.40;;;5.00;;
14748;SDS011;7466;53.574;9.976;2023-05-07T11:26:22;5.23;;;4.77;;
14748;SDS011;7466;53.574;9.976;2023-05-07T11:28:50;5.23;;;4.80;;
14748;SDS011;7466;53.574;9.976;2023-05-07T11:31:20;5.33;;;4.83;;
14748;SDS011;7466;53.574;9.976;2023-05-07T11:33:49;5.43;;;5.07;;
14748;SDS011;7466;53.574;9.976;2023-05-07T11:36:16;4.97;;;4.57;;
14748;SDS011;7466;53.574;9.976;2023-05-07T11:38:44;4.87;;;4.50;;
14748;SDS011;7466;53.574;9.976;2023-05-07T11:41:11;5.60;;;4.50;;
14748;SDS011;7466;53.574;9.976;2023-05-07T11:43:38;4.77;;;4.37;;
14748;SDS011;7466;53.574;9.976;2023-05-07T11:46:19;4.77;;;4.43;;
14748;SDS011;7466;53.574;9.976;2023-05-07T11:48:46;5.03;;;4.70;;
14748;SDS011;7466;53.574;9.976;2023-05-07T11:51:15;4.77;;;4.37;;
14748;SDS011;7466;53.574;9.976;2023-05-07T11:53:45;5.10;;;4.80;;
14748;SDS011;7466;53.574;9.976;2023-05-07T11:56:12;4.83;;;4.43;;
14748;SDS011;7466;53.574;9.976;2023-05-07T11:58:41;4.40;;;4.10;;
14748;SDS011;7466;53.574;9.976;2023-05-07T12:01:11;5.20;;;4.80;;
14748;SDS011;7466;53.574;9.976;2023-05-07T12:03:40;4.70;;;4.20;;
14748;SDS011;7466;53.574;9.976;2023-05-07T12:06:08;4.27;;;3.97;;
14748;SDS011;7466;53.574;9.976;2023-05-07T12:08:39;3.80;;;3.60;;
14748;SDS011;7466;53.574;9.976;2023-05-07T12:11:07;4.40;;;4.10;;
14748;SDS011;7466;53.574;9.976;2023-05-07T12:13:36;4.30;;;3.90;;
14748;SDS011;7466;53.574;9.976;2023-05-07T12:16:05;4.53;;;4.17;;
14748;SDS011;7466;53.574;9.976;2023-05-07T12:18:33;4.37;;;4.07;;
14748;SDS011;7466;53.574;9.976;2023-05-07T12:21:04;3.90;;;3.70;;
14748;SDS011;7466;53.574;9.976;2023-05-07T12:23:31;3.90;;;3.57;;
14748;SDS011;7466;53.574;9.976;2023-05-07T12:26:00;3.63;;;3.43;;
14748;SDS011;7466;53.574;9.976;2023-05-07T12:28:29;3.70;;;3.40;;
14748;SDS011;7466;53.574;9.976;2023-05-07T12:30:56;3.40;;;3.17;;
14748;SDS011;7466;53.574;9.976;2023-05-07T12:33:24;3.70;;;3.40;;
14748;SDS011;7466;53.574;9.976;2023-05-07T12:36:39;3.63;;;3.43;;
14748;SDS011;7466;53.574;9.976;2023-05-07T12:39:05;3.30;;;3.10;;
14748;SDS011;7466;53.574;9.976;2023-05-07T12:41:43;4.63;;;3.20;;
14748;SDS011;7466;53.574;9.976;2023-05-07T12:44:23;3.40;;;3.10;;
14748;SDS011;7466;53.574;9.976;2023-05-07T12:46:55;3.73;;;3.43;;
14748;SDS011;7466;53.574;9.976;2023-05-07T12:49:22;4.30;;;3.33;;
14748;SDS011;7466;53.574;9.976;2023-05-07T12:51:49;3.50;;;3.23;;
14748;SDS011;7466;53.574;9.976;2023-05-07T12:54:28;3.60;;;3.27;;
14748;SDS011;7466;53.574;9.976;2023-05-07T12:57:04;3.23;;;3.03;;
14748;SDS011;7466;53.574;9.976;2023-05-07T12:59:33;3.47;;;3.17;;
14748;SDS011;7466;53.574;9.976;2023-05-07T13:02:31;3.40;;;3.20;;
14748;SDS011;7466;53.574;9.976;2023-05-07T13:05:08;4.70;;;3.17;;
14748;SDS011;7466;53.574;9.976;2023-05-07T13:07:48;3.20;;;3.00;;
14748;SDS011;7466;53.574;9.976;2023-05-07T13:10:50;3.20;;;3.00;;
14748;SDS011;7466;53.574;9.976;2023-05-07T13:13:22;3.30;;;3.00;;
14748;SDS011;7466;53.574;9.976;2023-05-07T13:15:52;3.20;;;3.00;;
14748;SDS011;7466;53.574;9.976;2023-05-07T13:18:21;3.43;;;3.13;;
14748;SDS011;7466;53.574;9.976;2023-05-07T13:20:48;3.13;;;2.93;;
14748;SDS011;7466;53.574;9.976;2023-05-07T13:23:16;3.10;;;2.90;;
14748;SDS011;7466;53.574;9.976;2023-05-07T13:25:48;3.53;;;3.07;;
14748;SDS011;7466;53.574;9.976;2023-05-07T13:28:15;2.93;;;2.73;;
14748;SDS011;7466;53.574;9.976;2023-05-07T13:30:45;3.00;;;2.80;;
14748;SDS011;7466;53.574;9.976;2023-05-07T13:33:13;2.80;;;2.50;;
14748;SDS011;7466;53.574;9.976;2023-05-07T13:35:42;2.97;;;2.77;;
14748;SDS011;7466;53.574;9.976;2023-05-07T13:38:11;2.90;;;2.70;;
14748;SDS011;7466;53.574;9.976;2023-05-07T13:40:38;2.80;;;2.60;;
14748;SDS011;7466;53.574;9.976;2023-05-07T13:43:06;2.77;;;2.57;;
14748;SDS011;7466;53.574;9.976;2023-05-07T13:45:33;2.87;;;2.67;;
14748;SDS011;7466;53.574;9.976;2023-05-07T13:48:01;3.07;;;2.73;;
14748;SDS011;7466;53.574;9.976;2023-05-07T13:50:27;2.97;;;2.70;;
14748;SDS011;7466;53.574;9.976;2023-05-07T13:52:54;2.77;;;2.57;;
14748;SDS011;7466;53.574;9.976;2023-05-07T13:55:22;2.27;;;2.17;;
14748;SDS011;7466;53.574;9.976;2023-05-07T13:58:14;2.60;;;2.50;;
14748;SDS011;7466;53.574;9.976;2023-05-07T14:00:41;2.95;;;2.30;;
14748;SDS011;7466;53.574;9.976;2023-05-07T14:05:56;2.22;;;2.03;;
14748;SDS011;7466;53.574;9.976;2023-05-07T14:08:24;2.10;;;2.00;;
14748;SDS011;7466;53.574;9.976;2023-05-07T14:10:53;2.85;;;2.22;;
14748;SDS011;7466;53.574;9.976;2023-05-07T14:13:37;3.65;;;2.45;;
14748;SDS011;7466;53.574;9.976;2023-05-07T14:16:05;2.45;;;2.28;;
14748;SDS011;7466;53.574;9.976;2023-05-07T14:18:34;2.20;;;2.10;;
14748;SDS011;7466;53.574;9.976;2023-05-07T14:21:02;2.25;;;2.15;;
14748;SDS011;7466;53.574;9.976;2023-05-07T14:24:31;2.47;;;2.25;;
14748;SDS011;7466;53.574;9.976;2023-05-07T14:26:38;2.42;;;2.30;;
14748;SDS011;7466;53.574;9.976;2023-05-07T14:29:09;2.42;;;2.22;;
14748;SDS011;7466;53.574;9.976;2023-05-07T14:31:36;2.50;;;2.30;;
14748;SDS011;7466;53.574;9.976;2023-05-07T14:34:14;2.10;;;2.00;;
14748;SDS011;7466;53.574;9.976;2023-05-07T14:36:41;2.42;;;2.05;;
14748;SDS011;7466;53.574;9.976;2023-05-07T14:39:13;2.50;;;2.30;;
14748;SDS011;7466;53.574;9.976;2023-05-07T14:41:42;2.97;;;2.40;;
14748;SDS011;7466;53.574;9.976;2023-05-07T14:44:09;2.80;;;2.05;;
14748;SDS011;7466;53.574;9.976;2023-05-07T14:46:41;1.95;;;1.85;;
14748;SDS011;7466;53.574;9.976;2023-05-07T14:49:14;2.45;;;2.33;;
14748;SDS011;7466;53.574;9.976;2023-05-07T14:51:58;2.13;;;2.00;;
14748;SDS011;7466;53.574;9.976;2023-05-07T14:54:27;2.50;;;2.30;;
14748;SDS011;7466;53.574;9.976;2023-05-07T14:56:59;2.22;;;2.13;;
14748;SDS011;7466;53.574;9.976;2023-05-07T14:59:43;1.88;;;1.77;;
14748;SDS011;7466;53.574;9.976;2023-05-07T15:02:10;2.72;;;2.38;;
14748;SDS011;7466;53.574;9.976;2023-05-07T15:04:39;2.45;;;2.25;;
14748;SDS011;7466;53.574;9.976;2023-05-07T15:07:13;2.15;;;1.80;;
14748;SDS011;7466;53.574;9.976;2023-05-07T15:09:43;2.22;;;2.13;;